sensor_id;sensor_type;location;lat;lon;timestamp;P1;durP1;ratioP1;P2;durP2;ratioP2
45368;SDS011;51342;55.250;37.668;2023-04-24T00:03:53;16.83;;;9.43;;
45368;SDS011;51342;55.250;37.668;2023-04-24T00:06:26;16.43;;;8.77;;
45368;SDS011;51342;55.250;37.668;2023-04-24T00:09:03;15.00;;;8.63;;
45368;SDS011;51342;55.250;37.668;2023-04-24T00:11:36;14.73;;;9.20;;
45368;SDS011;51342;55.250;37.668;2023-04-24T00:14:08;22.37;;;11.53;;
45368;SDS011;51342;55.250;37.668;2023-04-24T00:16:40;21.37;;;11.67;;
45368;SDS011;51342;55.250;37.668;2023-04-24T00:19:11;24.87;;;11.73;;
45368;SDS011;51342;55.250;37.668;2023-04-24T00:21:43;19.83;;;10.13;;
45368;SDS011;51342;55.250;37.668;2023-04-24T00:24:15;20.63;;;10.17;;
45368;SDS011;51342;55.250;37.668;2023-04-24T00:26:47;18.80;;;11.80;;
45368;SDS011;51342;55.250;37.668;2023-04-24T00:29:19;18.13;;;9.37;;
45368;SDS011;51342;55.250;37.668;2023-04-24T00:31:50;14.83;;;8.80;;
45368;SDS011;51342;55.250;37.668;2023-04-24T00:34:21;16.10;;;8.53;;
45368;SDS011;51342;55.250;37.668;2023-04-24T00:36:53;17.83;;;10.50;;
45368;SDS011;51342;55.250;37.668;2023-04-24T00:39:25;22.13;;;11.13;;
45368;SDS011;51342;55.250;37.668;2023-04-24T00:41:57;15.80;;;9.00;;
45368;SDS011;51342;55.250;37.668;2023-04-24T00:44:28;16.70;;;8.90;;
45368;SDS011;51342;55.250;37.668;2023-04-24T00:47:00;12.27;;;7.83;;
45368;SDS011;51342;55.250;37.668;2023-04-24T00:49:32;12.57;;;7.50;;
45368;SDS011;51342;55.250;37.668;2023-04-24T00:52:03;13.57;;;7.40;;
45368;SDS011;51342;55.250;37.668;2023-04-24T00:54:38;13.00;;;7.70;;
45368;SDS011;51342;55.250;37.668;2023-04-24T00:57:09;10.30;;;8.00;;
45368;SDS011;51342;55.250;37.668;2023-04-24T00:59:41;14.87;;;8.37;;
45368;SDS011;51342;55.250;37.668;2023-04-24T01:02:13;15.07;;;8.43;;
45368;SDS011;51342;55.250;37.668;2023-04-24T01:04:46;11.67;;;8.07;;
45368;SDS011;51342;55.250;37.668;2023-04-24T01:07:21;12.80;;;7.87;;
45368;SDS011;51342;55.250;37.668;2023-04-24T01:09:53;15.37;;;8.13;;
45368;SDS011;51342;55.250;37.668;2023-04-24T01:12:24;13.87;;;8.53;;
45368;SDS011;51342;55.250;37.668;2023-04-24T01:14:56;13.10;;;8.07;;
45368;SDS011;51342;55.250;37.668;2023-04-24T01:17:27;20.20;;;9.43;;
45368;SDS011;51342;55.250;37.668;2023-04-24T01:19:59;23.13;;;10.77;;
45368;SDS011;51342;55.250;37.668;2023-04-24T01:22:33;18.23;;;10.00;;
45368;SDS011;51342;55.250;37.668;2023-04-24T01:25:05;25.23;;;11.63;;
45368;SDS011;51342;55.250;37.668;2023-04-24T01:27:36;20.93;;;11.83;;
45368;SDS011;51342;55.250;37.668;2023-04-24T01:30:09;28.70;;;11.73;;
45368;SDS011;51342;55.250;37.668;2023-04-24T01:32:41;24.07;;;10.33;;
45368;SDS011;51342;55.250;37.668;2023-04-24T01:35:15;20.03;;;10.10;;
45368;SDS011;51342;55.250;37.668;2023-04-24T01:37:46;14.63;;;9.13;;
45368;SDS011;51342;55.250;37.668;2023-04-24T01:40:18;22.87;;;10.20;;
45368;SDS011;51342;55.250;37.668;2023-04-24T01:42:49;23.63;;;10.47;;
45368;SDS011;51342;55.250;37.668;2023-04-24T01:45:21;19.30;;;10.93;;
45368;SDS011;51342;55.250;37.668;2023-04-24T01:47:53;16.27;;;9.53;;
45368;SDS011;51342;55.250;37.668;2023-04-24T01:50:24;18.40;;;9.90;;
45368;SDS011;51342;55.250;37.668;2023-04-24T01:52:56;20.37;;;9.27;;
45368;SDS011;51342;55.250;37.668;2023-04-24T01:55:29;18.67;;;9.70;;
45368;SDS011;51342;55.250;37.668;2023-04-24T01:58:00;13.93;;;9.40;;
45368;SDS011;51342;55.250;37.668;2023-04-24T02:00:33;16.57;;;9.77;;
45368;SDS011;51342;55.250;37.668;2023-04-24T02:03:04;17.67;;;10.47;;
45368;SDS011;51342;55.250;37.668;2023-04-24T02:05:36;25.17;;;12.17;;
45368;SDS011;51342;55.250;37.668;2023-04-24T02:08:08;16.73;;;9.50;;
45368;SDS011;51342;55.250;37.668;2023-04-24T02:10:42;18.80;;;9.47;;
45368;SDS011;51342;55.250;37.668;2023-04-24T02:13:13;21.63;;;10.77;;
45368;SDS011;51342;55.250;37.668;2023-04-24T02:15:45;15.63;;;9.80;;
45368;SDS011;51342;55.250;37.668;2023-04-24T02:18:16;16.47;;;9.63;;
45368;SDS011;51342;55.250;37.668;2023-04-24T02:20:47;16.10;;;9.43;;
45368;SDS011;51342;55.250;37.668;2023-04-24T02:23:19;19.20;;;10.20;;
45368;SDS011;51342;55.250;37.668;2023-04-24T02:25:50;16.30;;;10.07;;
45368;SDS011;51342;55.250;37.668;2023-04-24T02:28:24;16.40;;;9.70;;
45368;SDS011;51342;55.250;37.668;2023-04-24T02:30:55;16.63;;;10.37;;
45368;SDS011;51342;55.250;37.668;2023-04-24T02:33:27;16.50;;;9.43;;
45368;SDS011;51342;55.250;37.668;2023-04-24T02:35:58;15.13;;;8.77;;
45368;SDS011;51342;55.250;37.668;2023-04-24T02:38:30;14.33;;;9.30;;
45368;SDS011;51342;55.250;37.668;2023-04-24T02:41:01;14.23;;;8.70;;
45368;SDS011;51342;55.250;37.668;2023-04-24T02:43:37;14.10;;;8.90;;
45368;SDS011;51342;55.250;37.668;2023-04-24T02:46:08;13.77;;;8.80;;
45368;SDS011;51342;55.250;37.668;2023-04-24T02:48:40;13.87;;;8.57;;
45368;SDS011;51342;55.250;37.668;2023-04-24T02:51:11;13.90;;;8.53;;
45368;SDS011;51342;55.250;37.668;2023-04-24T02:53:43;11.40;;;8.63;;
45368;SDS011;51342;55.250;37.668;2023-04-24T02:56:15;11.77;;;8.83;;
45368;SDS011;51342;55.250;37.668;2023-04-24T02:58:47;11.67;;;8.77;;
45368;SDS011;51342;55.250;37.668;2023-04-24T03:01:18;12.13;;;7.80;;
45368;SDS011;51342;55.250;37.668;2023-04-24T03:03:50;15.13;;;9.10;;
45368;SDS011;51342;55.250;37.668;2023-04-24T03:06:21;15.50;;;8.23;;
45368;SDS011;51342;55.250;37.668;2023-04-24T03:08:53;10.53;;;7.53;;
45368;SDS011;51342;55.250;37.668;2023-04-24T03:11:25;13.47;;;7.90;;
45368;SDS011;51342;55.250;37.668;2023-04-24T03:13:57;10.33;;;7.83;;
45368;SDS011;51342;55.250;37.668;2023-04-24T03:16:28;15.33;;;8.07;;
45368;SDS011;51342;55.250;37.668;2023-04-24T03:18:59;13.07;;;7.67;;
45368;SDS011;51342;55.250;37.668;2023-04-24T03:21:36;10.60;;;7.83;;
45368;SDS011;51342;55.250;37.668;2023-04-24T03:24:11;11.33;;;7.43;;
45368;SDS011;51342;55.250;37.668;2023-04-24T03:26:43;12.30;;;7.70;;
45368;SDS011;51342;55.250;37.668;2023-04-24T03:29:41;11.83;;;7.63;;
45368;SDS011;51342;55.250;37.668;2023-04-24T03:32:13;13.87;;;7.50;;
45368;SDS011;51342;55.250;37.668;2023-04-24T03:34:44;10.73;;;6.23;;
45368;SDS011;51342;55.250;37.668;2023-04-24T03:37:19;9.47;;;7.30;;
45368;SDS011;51342;55.250;37.668;2023-04-24T03:39:59;9.13;;;6.80;;
45368;SDS011;51342;55.250;37.668;2023-04-24T03:42:30;10.30;;;7.43;;
45368;SDS011;51342;55.250;37.668;2023-04-24T03:45:02;9.73;;;6.50;;
45368;SDS011;51342;55.250;37.668;2023-04-24T03:47:38;10.87;;;6.77;;
45368;SDS011;51342;55.250;37.668;2023-04-24T03:50:10;9.33;;;6.17;;
45368;SDS011;51342;55.250;37.668;2023-04-24T03:52:42;7.77;;;5.77;;
45368;SDS011;51342;55.250;37.668;2023-04-24T03:55:14;8.53;;;6.77;;
45368;SDS011;51342;55.250;37.668;2023-04-24T03:57:49;11.47;;;6.07;;
45368;SDS011;51342;55.250;37.668;2023-04-24T04:00:26;8.20;;;6.40;;
45368;SDS011;51342;55.250;37.668;2023-04-24T04:03:17;7.23;;;5.40;;
45368;SDS011;51342;55.250;37.668;2023-04-24T04:06:00;7.77;;;5.70;;
45368;SDS011;51342;55.250;37.668;2023-04-24T04:08:32;7.77;;;5.37;;
45368;SDS011;51342;55.250;37.668;2023-04-24T04:11:03;7.03;;;4.90;;
45368;SDS011;51342;55.250;37.668;2023-04-24T04:13:35;8.03;;;5.00;;
45368;SDS011;51342;55.250;37.668;2023-04-24T04:16:06;7.63;;;5.73;;
45368;SDS011;51342;55.250;37.668;2023-04-24T04:18:39;7.57;;;5.33;;
45368;SDS011;51342;55.250;37.668;2023-04-24T04:21:12;5.97;;;4.50;;
45368;SDS011;51342;55.250;37.668;2023-04-24T04:23:43;8.70;;;5.17;;
45368;SDS011;51342;55.250;37.668;2023-04-24T04:26:20;6.77;;;5.07;;
45368;SDS011;51342;55.250;37.668;2023-04-24T04:29:02;7.00;;;5.10;;
45368;SDS011;51342;55.250;37.668;2023-04-24T04:31:35;5.57;;;4.50;;
45368;SDS011;51342;55.250;37.668;2023-04-24T04:34:12;7.05;;;5.30;;
45368;SDS011;51342;55.250;37.668;2023-04-24T04:36:45;7.65;;;5.15;;
45368;SDS011;51342;55.250;37.668;2023-04-24T04:39:46;7.25;;;4.78;;
45368;SDS011;51342;55.250;37.668;2023-04-24T04:42:23;8.15;;;5.20;;
45368;SDS011;51342;55.250;37.668;2023-04-24T04:44:55;5.57;;;4.60;;
45368;SDS011;51342;55.250;37.668;2023-04-24T04:47:35;6.63;;;5.50;;
45368;SDS011;51342;55.250;37.668;2023-04-24T04:50:07;7.50;;;4.93;;
45368;SDS011;51342;55.250;37.668;2023-04-24T04:52:39;7.75;;;5.72;;
45368;SDS011;51342;55.250;37.668;2023-04-24T04:55:26;7.93;;;5.28;;
45368;SDS011;51342;55.250;37.668;2023-04-24T04:58:10;6.65;;;5.55;;
45368;SDS011;51342;55.250;37.668;2023-04-24T05:00:42;6.80;;;4.82;;
45368;SDS011;51342;55.250;37.668;2023-04-24T05:03:30;7.40;;;4.95;;
45368;SDS011;51342;55.250;37.668;2023-04-24T05:06:11;6.82;;;4.55;;
45368;SDS011;51342;55.250;37.668;2023-04-24T05:08:44;6.85;;;4.70;;
45368;SDS011;51342;55.250;37.668;2023-04-24T05:11:25;6.63;;;4.60;;
45368;SDS011;51342;55.250;37.668;2023-04-24T05:13:58;6.57;;;4.90;;
45368;SDS011;51342;55.250;37.668;2023-04-24T05:16:38;5.60;;;4.60;;
45368;SDS011;51342;55.250;37.668;2023-04-24T05:19:24;5.80;;;4.27;;
45368;SDS011;51342;55.250;37.668;2023-04-24T05:21:55;7.30;;;4.65;;
45368;SDS011;51342;55.250;37.668;2023-04-24T05:24:27;5.35;;;4.70;;
45368;SDS011;51342;55.250;37.668;2023-04-24T05:27:25;8.43;;;5.43;;
45368;SDS011;51342;55.250;37.668;2023-04-24T05:29:56;6.13;;;4.38;;
45368;SDS011;51342;55.250;37.668;2023-04-24T05:32:28;6.45;;;4.95;;
45368;SDS011;51342;55.250;37.668;2023-04-24T05:35:00;6.28;;;4.72;;
45368;SDS011;51342;55.250;37.668;2023-04-24T05:37:31;7.32;;;4.95;;
45368;SDS011;51342;55.250;37.668;2023-04-24T05:40:03;8.02;;;5.53;;
45368;SDS011;51342;55.250;37.668;2023-04-24T05:42:36;6.93;;;5.38;;
45368;SDS011;51342;55.250;37.668;2023-04-24T05:45:07;6.50;;;5.05;;
45368;SDS011;51342;55.250;37.668;2023-04-24T05:47:40;7.40;;;4.72;;
45368;SDS011;51342;55.250;37.668;2023-04-24T05:50:11;7.00;;;5.05;;
45368;SDS011;51342;55.250;37.668;2023-04-24T05:52:43;8.32;;;5.18;;
45368;SDS011;51342;55.250;37.668;2023-04-24T05:55:31;7.07;;;5.40;;
45368;SDS011;51342;55.250;37.668;2023-04-24T05:58:02;7.82;;;5.20;;
45368;SDS011;51342;55.250;37.668;2023-04-24T06:00:34;8.32;;;4.82;;
45368;SDS011;51342;55.250;37.668;2023-04-24T06:03:11;7.32;;;4.60;;
45368;SDS011;51342;55.250;37.668;2023-04-24T06:05:42;8.30;;;5.20;;
45368;SDS011;51342;55.250;37.668;2023-04-24T06:08:14;9.38;;;5.15;;
45368;SDS011;51342;55.250;37.668;2023-04-24T06:10:47;8.88;;;4.70;;
45368;SDS011;51342;55.250;37.668;2023-04-24T06:13:20;6.90;;;4.97;;
45368;SDS011;51342;55.250;37.668;2023-04-24T06:16:11;9.27;;;5.15;;
45368;SDS011;51342;55.250;37.668;2023-04-24T06:18:58;8.20;;;5.30;;
45368;SDS011;51342;55.250;37.668;2023-04-24T06:21:29;7.32;;;4.70;;
45368;SDS011;51342;55.250;37.668;2023-04-24T06:24:01;7.15;;;5.25;;
45368;SDS011;51342;55.250;37.668;2023-04-24T06:26:32;7.00;;;4.88;;
45368;SDS011;51342;55.250;37.668;2023-04-24T06:29:04;7.25;;;5.00;;
45368;SDS011;51342;55.250;37.668;2023-04-24T06:31:38;8.38;;;4.88;;
45368;SDS011;51342;55.250;37.668;2023-04-24T06:34:09;6.97;;;4.40;;
45368;SDS011;51342;55.250;37.668;2023-04-24T06:36:41;5.90;;;4.28;;
45368;SDS011;51342;55.250;37.668;2023-04-24T06:39:12;8.02;;;4.60;;
45368;SDS011;51342;55.250;37.668;2023-04-24T06:41:44;6.40;;;4.28;;
45368;SDS011;51342;55.250;37.668;2023-04-24T06:44:23;8.05;;;4.75;;
45368;SDS011;51342;55.250;37.668;2023-04-24T06:46:54;8.38;;;4.47;;
45368;SDS011;51342;55.250;37.668;2023-04-24T06:49:26;6.90;;;4.65;;
45368;SDS011;51342;55.250;37.668;2023-04-24T06:51:57;7.15;;;4.50;;
45368;SDS011;51342;55.250;37.668;2023-04-24T06:54:29;5.32;;;4.20;;
45368;SDS011;51342;55.250;37.668;2023-04-24T06:57:01;6.35;;;4.00;;
45368;SDS011;51342;55.250;37.668;2023-04-24T06:59:33;4.80;;;4.13;;
45368;SDS011;51342;55.250;37.668;2023-04-24T07:02:17;5.30;;;4.13;;
45368;SDS011;51342;55.250;37.668;2023-04-24T07:04:48;6.95;;;4.05;;
45368;SDS011;51342;55.250;37.668;2023-04-24T07:07:20;5.68;;;3.45;;
45368;SDS011;51342;55.250;37.668;2023-04-24T07:09:51;5.68;;;3.63;;
45368;SDS011;51342;55.250;37.668;2023-04-24T07:12:23;6.07;;;3.50;;
45368;SDS011;51342;55.250;37.668;2023-04-24T07:14:54;5.72;;;3.35;;
45368;SDS011;51342;55.250;37.668;2023-04-24T07:17:26;5.88;;;3.65;;
45368;SDS011;51342;55.250;37.668;2023-04-24T07:19:57;3.67;;;3.05;;
45368;SDS011;51342;55.250;37.668;2023-04-24T07:22:29;4.78;;;3.33;;
45368;SDS011;51342;55.250;37.668;2023-04-24T07:25:00;5.35;;;3.13;;
45368;SDS011;51342;55.250;37.668;2023-04-24T07:27:33;6.35;;;3.20;;
45368;SDS011;51342;55.250;37.668;2023-04-24T07:30:05;5.03;;;3.28;;
45368;SDS011;51342;55.250;37.668;2023-04-24T07:32:37;5.00;;;3.10;;
45368;SDS011;51342;55.250;37.668;2023-04-24T07:35:09;4.47;;;3.38;;
45368;SDS011;51342;55.250;37.668;2023-04-24T07:37:40;5.05;;;3.10;;
45368;SDS011;51342;55.250;37.668;2023-04-24T07:40:16;6.43;;;3.13;;
45368;SDS011;51342;55.250;37.668;2023-04-24T07:42:48;6.28;;;3.28;;
45368;SDS011;51342;55.250;37.668;2023-04-24T07:45:19;5.20;;;3.92;;
45368;SDS011;51342;55.250;37.668;2023-04-24T07:47:51;4.63;;;3.20;;
45368;SDS011;51342;55.250;37.668;2023-04-24T07:50:22;3.60;;;2.92;;
45368;SDS011;51342;55.250;37.668;2023-04-24T07:52:54;6.63;;;3.00;;
45368;SDS011;51342;55.250;37.668;2023-04-24T07:55:26;4.40;;;3.55;;
45368;SDS011;51342;55.250;37.668;2023-04-24T07:57:57;4.55;;;3.67;;
45368;SDS011;51342;55.250;37.668;2023-04-24T08:00:29;9.20;;;3.85;;
45368;SDS011;51342;55.250;37.668;2023-04-24T08:03:00;7.63;;;3.92;;
45368;SDS011;51342;55.250;37.668;2023-04-24T08:05:32;4.88;;;3.20;;
45368;SDS011;51342;55.250;37.668;2023-04-24T08:08:04;3.92;;;3.10;;
45368;SDS011;51342;55.250;37.668;2023-04-24T08:10:35;3.53;;;2.97;;
45368;SDS011;51342;55.250;37.668;2023-04-24T08:13:06;4.65;;;3.15;;
45368;SDS011;51342;55.250;37.668;2023-04-24T08:15:50;3.83;;;3.10;;
45368;SDS011;51342;55.250;37.668;2023-04-24T08:18:34;6.90;;;3.15;;
45368;SDS011;51342;55.250;37.668;2023-04-24T08:21:06;7.22;;;2.88;;
45368;SDS011;51342;55.250;37.668;2023-04-24T08:23:38;6.18;;;3.20;;
45368;SDS011;51342;55.250;37.668;2023-04-24T08:26:09;6.30;;;3.28;;
45368;SDS011;51342;55.250;37.668;2023-04-24T08:28:54;4.30;;;3.28;;
45368;SDS011;51342;55.250;37.668;2023-04-24T08:31:25;4.78;;;3.08;;
45368;SDS011;51342;55.250;37.668;2023-04-24T08:33:57;5.43;;;2.97;;
45368;SDS011;51342;55.250;37.668;2023-04-24T08:36:41;5.40;;;2.90;;
45368;SDS011;51342;55.250;37.668;2023-04-24T08:39:12;4.18;;;2.75;;
45368;SDS011;51342;55.250;37.668;2023-04-24T08:41:45;4.28;;;2.80;;
45368;SDS011;51342;55.250;37.668;2023-04-24T08:44:36;3.38;;;2.53;;
45368;SDS011;51342;55.250;37.668;2023-04-24T08:47:08;4.05;;;2.88;;
45368;SDS011;51342;55.250;37.668;2023-04-24T08:49:39;4.28;;;2.90;;
45368;SDS011;51342;55.250;37.668;2023-04-24T08:52:10;4.57;;;2.78;;
45368;SDS011;51342;55.250;37.668;2023-04-24T08:54:43;4.47;;;3.03;;
45368;SDS011;51342;55.250;37.668;2023-04-24T08:57:17;6.10;;;2.95;;
45368;SDS011;51342;55.250;37.668;2023-04-24T08:59:49;3.72;;;3.20;;
45368;SDS011;51342;55.250;37.668;2023-04-24T09:02:21;5.18;;;2.90;;
45368;SDS011;51342;55.250;37.668;2023-04-24T09:04:54;4.72;;;2.83;;
45368;SDS011;51342;55.250;37.668;2023-04-24T09:07:27;5.13;;;3.08;;
45368;SDS011;51342;55.250;37.668;2023-04-24T09:10:02;3.92;;;2.90;;
45368;SDS011;51342;55.250;37.668;2023-04-24T09:12:34;3.80;;;3.10;;
45368;SDS011;51342;55.250;37.668;2023-04-24T09:15:05;4.25;;;2.80;;
45368;SDS011;51342;55.250;37.668;2023-04-24T09:17:39;4.80;;;3.33;;
45368;SDS011;51342;55.250;37.668;2023-04-24T09:20:10;4.90;;;2.92;;
45368;SDS011;51342;55.250;37.668;2023-04-24T09:22:42;5.35;;;3.30;;
45368;SDS011;51342;55.250;37.668;2023-04-24T09:25:16;4.03;;;3.10;;
45368;SDS011;51342;55.250;37.668;2023-04-24T09:27:47;5.53;;;3.58;;
45368;SDS011;51342;55.250;37.668;2023-04-24T09:30:21;4.82;;;3.45;;
45368;SDS011;51342;55.250;37.668;2023-04-24T09:33:12;4.57;;;3.38;;
45368;SDS011;51342;55.250;37.668;2023-04-24T09:35:51;4.95;;;3.35;;
45368;SDS011;51342;55.250;37.668;2023-04-24T09:41:06;3.50;;;2.90;;
45368;SDS011;51342;55.250;37.668;2023-04-24T09:43:38;3.75;;;3.08;;
45368;SDS011;51342;55.250;37.668;2023-04-24T09:46:09;4.85;;;3.13;;
45368;SDS011;51342;55.250;37.668;2023-04-24T09:48:41;5.35;;;3.05;;
45368;SDS011;51342;55.250;37.668;2023-04-24T09:51:12;15.90;;;3.67;;
45368;SDS011;51342;55.250;37.668;2023-04-24T09:53:47;3.47;;;2.90;;
45368;SDS011;51342;55.250;37.668;2023-04-24T09:56:22;5.07;;;2.72;;
45368;SDS011;51342;55.250;37.668;2023-04-24T09:59:03;4.93;;;2.90;;
45368;SDS011;51342;55.250;37.668;2023-04-24T10:01:36;3.38;;;2.95;;
45368;SDS011;51342;55.250;37.668;2023-04-24T10:04:18;5.68;;;3.38;;
45368;SDS011;51342;55.250;37.668;2023-04-24T10:06:55;5.18;;;3.05;;
45368;SDS011;51342;55.250;37.668;2023-04-24T10:09:28;5.88;;;3.50;;
45368;SDS011;51342;55.250;37.668;2023-04-24T10:11:59;3.67;;;2.97;;
45368;SDS011;51342;55.250;37.668;2023-04-24T10:14:32;5.28;;;3.00;;
45368;SDS011;51342;55.250;37.668;2023-04-24T10:17:04;4.50;;;3.05;;
45368;SDS011;51342;55.250;37.668;2023-04-24T10:19:37;4.40;;;2.67;;
45368;SDS011;51342;55.250;37.668;2023-04-24T10:22:09;5.15;;;3.33;;
45368;SDS011;51342;55.250;37.668;2023-04-24T10:24:40;3.70;;;2.75;;
45368;SDS011;51342;55.250;37.668;2023-04-24T10:27:12;3.17;;;2.58;;
45368;SDS011;51342;55.250;37.668;2023-04-24T10:29:46;4.00;;;2.72;;
45368;SDS011;51342;55.250;37.668;2023-04-24T10:32:19;4.28;;;2.90;;
45368;SDS011;51342;55.250;37.668;2023-04-24T10:34:51;3.88;;;2.80;;
45368;SDS011;51342;55.250;37.668;2023-04-24T10:37:23;4.85;;;3.08;;
45368;SDS011;51342;55.250;37.668;2023-04-24T10:39:55;3.78;;;2.60;;
45368;SDS011;51342;55.250;37.668;2023-04-24T10:42:27;4.32;;;2.88;;
45368;SDS011;51342;55.250;37.668;2023-04-24T10:44:59;5.28;;;2.72;;
45368;SDS011;51342;55.250;37.668;2023-04-24T10:47:39;3.65;;;2.30;;
45368;SDS011;51342;55.250;37.668;2023-04-24T10:50:12;4.72;;;2.95;;
45368;SDS011;51342;55.250;37.668;2023-04-24T10:52:47;4.20;;;3.35;;
45368;SDS011;51342;55.250;37.668;2023-04-24T10:58:21;5.25;;;3.40;;
45368;SDS011;51342;55.250;37.668;2023-04-24T11:00:57;7.63;;;3.13;;
45368;SDS011;51342;55.250;37.668;2023-04-24T11:03:31;5.60;;;2.90;;
45368;SDS011;51342;55.250;37.668;2023-04-24T11:06:05;3.30;;;2.38;;
45368;SDS011;51342;55.250;37.668;2023-04-24T11:08:38;5.30;;;2.15;;
45368;SDS011;51342;55.250;37.668;2023-04-24T11:11:15;4.15;;;2.40;;
45368;SDS011;51342;55.250;37.668;2023-04-24T11:16:26;9.80;;;7.80;;
45368;SDS011;51342;55.250;37.668;2023-04-24T11:19:08;4.03;;;2.70;;
45368;SDS011;51342;55.250;37.668;2023-04-24T11:22:03;4.20;;;2.63;;
45368;SDS011;51342;55.250;37.668;2023-04-24T11:27:22;3.67;;;2.50;;
45368;SDS011;51342;55.250;37.668;2023-04-24T11:32:38;3.83;;;2.78;;
45368;SDS011;51342;55.250;37.668;2023-04-24T11:35:18;4.30;;;2.80;;
45368;SDS011;51342;55.250;37.668;2023-04-24T11:37:52;4.28;;;2.45;;
45368;SDS011;51342;55.250;37.668;2023-04-24T11:40:25;4.88;;;2.47;;
45368;SDS011;51342;55.250;37.668;2023-04-24T11:42:56;4.20;;;2.55;;
45368;SDS011;51342;55.250;37.668;2023-04-24T11:45:31;3.55;;;2.80;;
45368;SDS011;51342;55.250;37.668;2023-04-24T11:48:03;3.22;;;2.70;;
45368;SDS011;51342;55.250;37.668;2023-04-24T11:50:34;4.70;;;2.70;;
45368;SDS011;51342;55.250;37.668;2023-04-24T11:53:06;4.38;;;2.40;;
45368;SDS011;51342;55.250;37.668;2023-04-24T11:55:37;4.20;;;2.53;;
45368;SDS011;51342;55.250;37.668;2023-04-24T11:58:09;3.35;;;2.47;;
45368;SDS011;51342;55.250;37.668;2023-04-24T12:00:40;3.20;;;2.53;;
45368;SDS011;51342;55.250;37.668;2023-04-24T12:03:12;5.07;;;2.35;;
45368;SDS011;51342;55.250;37.668;2023-04-24T12:05:43;5.28;;;2.70;;
45368;SDS011;51342;55.250;37.668;2023-04-24T12:08:28;5.07;;;2.50;;
45368;SDS011;51342;55.250;37.668;2023-04-24T12:11:00;3.65;;;2.58;;
45368;SDS011;51342;55.250;37.668;2023-04-24T12:13:33;4.28;;;3.10;;
45368;SDS011;51342;55.250;37.668;2023-04-24T12:16:05;4.43;;;2.67;;
45368;SDS011;51342;55.250;37.668;2023-04-24T12:18:43;4.00;;;2.50;;
45368;SDS011;51342;55.250;37.668;2023-04-24T12:21:17;3.40;;;2.63;;
45368;SDS011;51342;55.250;37.668;2023-04-24T12:23:54;4.50;;;2.55;;
45368;SDS011;51342;55.250;37.668;2023-04-24T12:26:26;5.07;;;3.00;;
45368;SDS011;51342;55.250;37.668;2023-04-24T12:29:01;4.35;;;2.85;;
45368;SDS011;51342;55.250;37.668;2023-04-24T12:31:34;4.60;;;2.53;;
45368;SDS011;51342;55.250;37.668;2023-04-24T12:34:17;3.97;;;2.60;;
45368;SDS011;51342;55.250;37.668;2023-04-24T12:36:52;3.40;;;2.58;;
45368;SDS011;51342;55.250;37.668;2023-04-24T12:39:23;7.13;;;2.97;;
45368;SDS011;51342;55.250;37.668;2023-04-24T12:41:57;4.63;;;2.85;;
45368;SDS011;51342;55.250;37.668;2023-04-24T12:44:33;4.40;;;2.85;;
45368;SDS011;51342;55.250;37.668;2023-04-24T12:47:05;3.60;;;2.40;;
45368;SDS011;51342;55.250;37.668;2023-04-24T12:49:37;4.72;;;2.60;;
45368;SDS011;51342;55.250;37.668;2023-04-24T12:52:09;4.30;;;2.53;;
45368;SDS011;51342;55.250;37.668;2023-04-24T12:54:40;3.00;;;2.35;;
45368;SDS011;51342;55.250;37.668;2023-04-24T12:57:12;5.97;;;2.53;;
45368;SDS011;51342;55.250;37.668;2023-04-24T12:59:43;3.58;;;2.78;;
45368;SDS011;51342;55.250;37.668;2023-04-24T13:02:14;5.45;;;2.70;;
45368;SDS011;51342;55.250;37.668;2023-04-24T13:04:49;4.75;;;2.70;;
45368;SDS011;51342;55.250;37.668;2023-04-24T13:07:21;2.85;;;2.42;;
45368;SDS011;51342;55.250;37.668;2023-04-24T13:09:53;5.10;;;2.33;;
45368;SDS011;51342;55.250;37.668;2023-04-24T13:12:26;4.53;;;2.85;;
45368;SDS011;51342;55.250;37.668;2023-04-24T13:14:58;4.75;;;2.88;;
45368;SDS011;51342;55.250;37.668;2023-04-24T13:17:29;5.35;;;2.70;;
45368;SDS011;51342;55.250;37.668;2023-04-24T13:20:01;5.45;;;2.80;;
45368;SDS011;51342;55.250;37.668;2023-04-24T13:22:33;3.85;;;3.08;;
45368;SDS011;51342;55.250;37.668;2023-04-24T13:25:05;4.38;;;3.00;;
45368;SDS011;51342;55.250;37.668;2023-04-24T13:27:40;5.78;;;2.55;;
45368;SDS011;51342;55.250;37.668;2023-04-24T13:30:11;3.30;;;2.70;;
45368;SDS011;51342;55.250;37.668;2023-04-24T13:32:43;7.93;;;2.92;;
45368;SDS011;51342;55.250;37.668;2023-04-24T13:35:15;4.90;;;2.90;;
45368;SDS011;51342;55.250;37.668;2023-04-24T13:37:46;4.63;;;2.53;;
45368;SDS011;51342;55.250;37.668;2023-04-24T13:40:18;4.78;;;2.63;;
45368;SDS011;51342;55.250;37.668;2023-04-24T13:42:49;3.65;;;2.58;;
45368;SDS011;51342;55.250;37.668;2023-04-24T13:45:21;4.22;;;2.80;;
45368;SDS011;51342;55.250;37.668;2023-04-24T13:47:53;5.55;;;3.00;;
45368;SDS011;51342;55.250;37.668;2023-04-24T13:50:24;4.63;;;3.00;;
45368;SDS011;51342;55.250;37.668;2023-04-24T13:52:56;4.88;;;3.30;;
45368;SDS011;51342;55.250;37.668;2023-04-24T13:55:28;4.70;;;2.90;;
45368;SDS011;51342;55.250;37.668;2023-04-24T13:58:00;5.22;;;2.80;;
45368;SDS011;51342;55.250;37.668;2023-04-24T14:00:32;3.22;;;2.88;;
45368;SDS011;51342;55.250;37.668;2023-04-24T14:03:03;4.15;;;2.83;;
45368;SDS011;51342;55.250;37.668;2023-04-24T14:05:35;5.65;;;3.67;;
45368;SDS011;51342;55.250;37.668;2023-04-24T14:08:06;7.40;;;3.35;;
45368;SDS011;51342;55.250;37.668;2023-04-24T14:10:38;4.55;;;2.80;;
45368;SDS011;51342;55.250;37.668;2023-04-24T14:13:09;5.65;;;3.17;;
45368;SDS011;51342;55.250;37.668;2023-04-24T14:15:41;4.57;;;3.35;;
45368;SDS011;51342;55.250;37.668;2023-04-24T14:18:13;6.70;;;3.03;;
45368;SDS011;51342;55.250;37.668;2023-04-24T14:20:44;5.72;;;3.00;;
45368;SDS011;51342;55.250;37.668;2023-04-24T14:23:16;4.75;;;3.20;;
45368;SDS011;51342;55.250;37.668;2023-04-24T14:25:47;5.80;;;3.20;;
45368;SDS011;51342;55.250;37.668;2023-04-24T14:28:21;4.65;;;3.03;;
45368;SDS011;51342;55.250;37.668;2023-04-24T14:30:53;6.10;;;3.60;;
45368;SDS011;51342;55.250;37.668;2023-04-24T14:33:24;5.70;;;3.10;;
45368;SDS011;51342;55.250;37.668;2023-04-24T14:35:56;7.93;;;3.90;;
45368;SDS011;51342;55.250;37.668;2023-04-24T14:38:28;6.10;;;3.30;;
45368;SDS011;51342;55.250;37.668;2023-04-24T14:41:00;6.80;;;3.42;;
45368;SDS011;51342;55.250;37.668;2023-04-24T14:43:32;4.18;;;3.08;;
45368;SDS011;51342;55.250;37.668;2023-04-24T14:46:05;5.88;;;3.38;;
45368;SDS011;51342;55.250;37.668;2023-04-24T14:48:37;7.57;;;3.55;;
45368;SDS011;51342;55.250;37.668;2023-04-24T14:51:08;5.25;;;2.88;;
45368;SDS011;51342;55.250;37.668;2023-04-24T14:53:40;6.65;;;3.60;;
45368;SDS011;51342;55.250;37.668;2023-04-24T14:56:11;5.75;;;2.83;;
45368;SDS011;51342;55.250;37.668;2023-04-24T14:58:43;5.60;;;3.20;;
45368;SDS011;51342;55.250;37.668;2023-04-24T15:01:14;5.75;;;3.40;;
45368;SDS011;51342;55.250;37.668;2023-04-24T15:03:46;7.05;;;3.28;;
45368;SDS011;51342;55.250;37.668;2023-04-24T15:06:17;4.85;;;3.20;;
45368;SDS011;51342;55.250;37.668;2023-04-24T15:08:49;4.60;;;3.22;;
45368;SDS011;51342;55.250;37.668;2023-04-24T15:11:20;6.45;;;3.22;;
45368;SDS011;51342;55.250;37.668;2023-04-24T15:13:51;5.53;;;3.25;;
45368;SDS011;51342;55.250;37.668;2023-04-24T15:16:23;8.00;;;3.40;;
45368;SDS011;51342;55.250;37.668;2023-04-24T15:18:55;5.97;;;3.38;;
45368;SDS011;51342;55.250;37.668;2023-04-24T15:21:28;4.65;;;3.40;;
45368;SDS011;51342;55.250;37.668;2023-04-24T15:23:59;6.88;;;3.67;;